Catàleg de serveis del Meteocat

Dades de l'estació automàtica Cassà de la Selva

?
?
Resum diari 23:00 TU
Dades diàries de l'estació meteorològica
Temperatura mitjana 9.3 °C
Temperatura màxima 14.5 °C 15:02 TU
Temperatura mínima 5.2 °C 4:32 TU
Humitat relativa mitjana 94%
Precipitació acumulada 1.9 mm
Ratxa màxima del vent (2 m) 14.0 km/h - 133º 13:22 TU
Irradiació solar global 5.8 MJ/m2

El tram horari està expressat en Temps Universal (TU). Cal sumar una hora en horari d'hivern i dues en horari d'estiu per passar a l'hora oficial.

Cassà de la Selva

Metadades estació meteorol´gica
Municipi Cassà de la Selva
Comarca Gironès
Altitud 171 m
Data alta 08.03.1993
Estat actual Operativa
Dades de període
Període
TU
TM
°C
TX
°C
TN
°C
HRM
%
PPT
mm
VVM (2 m)
km/h
DVM (2 m)
graus
VVX (2 m)
km/h
RS
W/m2
00:00 - 00:30 8.0 8.0 7.9 94 0.3 0.7 27 4.3 0
00:30 - 01:00 7.8 7.9 7.8 96 0.1 0.4 239 2.2 0
01:00 - 01:30 7.8 7.8 7.7 97 0.1 1.4 313 3.6 0
01:30 - 02:00 7.8 7.9 7.5 96 0.0 0.4 18 4.0 0
02:00 - 02:30 6.9 7.4 6.4 97 0.0 0.7 247 2.5 0
02:30 - 03:00 6.4 6.6 6.3 98 0.0 0.4 93 2.9 0
03:00 - 03:30 6.2 6.3 5.9 98 0.0 0.4 86 2.5 0
03:30 - 04:00 5.6 6.0 5.3 99 0.0 0.4 170 2.5 0
04:00 - 04:30 5.3 5.4 5.2 99 0.0 0.4 8 2.9 0
04:30 - 05:00 5.3 5.6 5.2 99 0.0 0.4 86 2.2 0
05:00 - 05:30 5.7 5.8 5.6 99 0.0 1.1 88 4.0 0
05:30 - 06:00 5.7 5.8 5.7 99 0.0 0.4 78 3.6 0
06:00 - 06:30 6.1 6.2 5.8 99 0.0 0.7 92 2.9 0
06:30 - 07:00 5.9 6.1 5.8 99 0.0 0.4 89 3.2 4
07:00 - 07:30 6.6 7.1 6.1 99 0.0 0.4 89 3.2 21
07:30 - 08:00 7.8 8.5 7.1 99 0.0 1.1 112 4.0 110
08:00 - 08:30 8.4 8.6 8.3 98 0.0 1.8 228 4.7 71
08:30 - 09:00 8.7 9.1 8.3 98 0.0 1.1 213 4.0 99
09:00 - 09:30 9.7 10.4 9.0 91 0.0 2.2 124 5.8 194
09:30 - 10:00 11.2 12.2 10.4 87 0.0 2.2 231 5.4 325
10:00 - 10:30 11.5 12.3 11.0 89 0.0 3.6 237 7.9 244
10:30 - 11:00 13.0 13.7 12.1 85 0.0 2.5 232 7.2 337
11:00 - 11:30 13.3 13.7 13.1 83 0.0 2.2 244 6.8 271
11:30 - 12:00 13.3 13.7 13.0 83 0.0 4.7 248 9.4 296
12:00 - 12:30 13.7 14.0 13.3 80 0.0 4.0 251 7.9 282
12:30 - 13:00 13.0 13.3 12.8 85 0.0 2.5 253 5.4 77
13:00 - 13:30 13.2 14.1 12.7 84 0.0 2.9 209 14.0 259
13:30 - 14:00 13.6 14.0 13.4 82 0.0 5.8 153 12.6 247
14:00 - 14:30 14.0 14.3 13.7 80 0.0 4.3 217 9.4 183
14:30 - 15:00 13.8 14.2 13.7 82 0.0 4.3 203 10.1 128
15:00 - 15:30 13.9 14.5 13.4 82 0.0 4.7 197 10.1 103
15:30 - 16:00 12.9 13.4 12.5 90 0.2 2.2 126 7.2 20
16:00 - 16:30 12.1 12.5 11.7 96 0.0 1.4 89 4.0 7
16:30 - 17:00 11.2 11.7 10.8 97 0.0 0.7 89 2.9 0
17:00 - 17:30 10.4 10.8 9.9 98 0.0 2.2 88 5.4 0
17:30 - 18:00 9.7 10.1 9.1 98 0.0 1.4 85 5.0 0
18:00 - 18:30 8.9 9.1 8.5 98 0.0 0.7 85 3.2 0
18:30 - 19:00 8.0 8.5 7.7 98 0.0 0.4 85 2.9 0
19:00 - 19:30 7.5 7.7 7.4 99 0.0 0.4 76 4.0 0
19:30 - 20:00 7.9 8.0 7.6 99 0.0 0.4 71 4.3 0
20:00 - 20:30 8.2 8.5 7.9 99 0.0 0.4 100 2.9 0
20:30 - 21:00 8.8 9.1 8.6 99 0.4 2.5 248 7.2 0
21:00 - 21:30 9.2 9.3 9.1 98 0.8 1.1 66 5.8 0
21:30 - 22:00 8.9 9.1 8.7 97 0.0 2.5 80 8.6 0
22:00 - 22:30 8.6 8.8 8.4 98 0.0 0.4 301 3.6 0
22:30 - 23:00 8.6 8.6 8.5 98 0.0 0.7 101 6.1 0
23:00 - 23:30 8.4 8.6 8.2 98 0.0 1.4 88 10.8 0

Les dades en taronja només han passat un control de qualitat automàtic. Resta pendent la seva validació definitiva.